Time;durP1;ratioP1;P1;durP2;ratioP2;P2;SDS_P1;SDS_P2;PMS_P1;PMS_P2;Temp;Humidity;BMP_temperature;BMP_pressure;BME280_temperature;BME280_humidity;BME280_pressure;Samples;Min_cycle;Max_cycle;Signal;HPM_P1;HPM_P2
2023/04/12 00:01:56;;;;;;;2.40;1.93;;;8.20;99.90;;;;;;6229491;23;20194;-86
2023/04/12 00:04:26;;;;;;;0.40;0.40;;;8.20;99.90;;;;;;6204301;23;20184;-84
2023/04/12 00:06:53;;;;;;;3.57;2.27;;;8.20;99.90;;;;;;6206244;23;20202;-84
2023/04/12 00:09:19;;;;;;;6.20;0.80;;;8.20;99.90;;;;;;6203045;23;20197;-85
2023/04/12 00:11:45;;;;;;;0.83;0.83;;;8.20;99.90;;;;;;6203111;23;20696;-85
2023/04/12 00:14:11;;;;;;;1.87;1.23;;;8.20;99.90;;;;;;6172247;23;20197;-83
2023/04/12 00:16:37;;;;;;;1.20;1.10;;;8.30;99.90;;;;;;6173940;23;20157;-84
2023/04/12 00:19:05;;;;;;;1.53;1.27;;;8.30;99.90;;;;;;6229329;23;20525;-84
2023/04/12 00:21:31;;;;;;;1.37;1.23;;;8.30;99.90;;;;;;6228730;23;20197;-84
2023/04/12 00:23:57;;;;;;;0.60;0.60;;;8.40;99.90;;;;;;6203665;23;20288;-84
2023/04/12 00:26:24;;;;;;;1.17;1.07;;;8.40;99.90;;;;;;6228672;23;20656;-84
2023/04/12 00:28:50;;;;;;;1.80;1.17;;;8.40;99.90;;;;;;6204606;23;20154;-84
2023/04/12 00:31:15;;;;;;;1.03;0.97;;;8.60;99.90;;;;;;6203720;23;20523;-83
2023/04/12 00:33:41;;;;;;;1.23;1.03;;;8.60;99.90;;;;;;6203577;23;20197;-85
2023/04/12 00:36:07;;;;;;;0.40;0.40;;;8.70;99.90;;;;;;6203450;23;20621;-84
2023/04/12 00:38:33;;;;;;;1.10;1.10;;;8.70;99.90;;;;;;6204690;23;20268;-85
2023/04/12 00:40:59;;;;;;;1.57;1.17;;;8.70;99.90;;;;;;6204850;23;20281;-84
2023/04/12 00:43:26;;;;;;;0.40;0.40;;;8.70;99.90;;;;;;6205131;23;20161;-84
2023/04/12 00:45:53;;;;;;;8.03;1.70;;;8.70;99.90;;;;;;6203317;23;20208;-85
2023/04/12 00:48:19;;;;;;;0.60;0.53;;;8.70;99.90;;;;;;6204601;23;20186;-85
2023/04/12 00:50:46;;;;;;;2.83;2.63;;;8.70;99.90;;;;;;6178512;23;20205;-85
2023/04/12 00:53:16;;;;;;;0.90;0.90;;;8.70;99.90;;;;;;6204936;23;20240;-85
2023/04/12 00:55:44;;;;;;;1.33;0.80;;;8.70;99.90;;;;;;6204496;23;20931;-84
2023/04/12 00:58:10;;;;;;;1.80;1.63;;;8.70;99.90;;;;;;6206035;23;20158;-84
2023/04/12 01:00:36;;;;;;;3.30;0.97;;;8.70;99.90;;;;;;6203300;23;20198;-84
2023/04/12 01:03:04;;;;;;;0.50;0.50;;;8.70;99.90;;;;;;6200695;23;20582;-85
2023/04/12 01:05:34;;;;;;;1.30;1.10;;;8.70;99.90;;;;;;6226100;23;20721;-85
2023/04/12 01:08:45;;;;;;;0.60;0.60;;;8.70;99.90;;;;;;6203052;23;20212;-85
2023/04/12 01:11:31;;;;;;;2.83;0.93;;;8.70;99.90;;;;;;6187234;23;20692;-85
2023/04/12 01:14:00;;;;;;;1.07;0.93;;;8.70;99.90;;;;;;6228361;23;20531;-84
2023/04/12 01:16:29;;;;;;;2.37;0.63;;;8.70;99.90;;;;;;6204511;23;20220;-86
2023/04/12 01:19:02;;;;;;;4.70;0.80;;;8.70;99.90;;;;;;6204348;23;20197;-85
2023/04/12 01:21:44;;;;;;;1.27;1.17;;;8.60;99.90;;;;;;6226491;23;20198;-84
2023/04/12 01:24:18;;;;;;;1.47;1.03;;;8.60;99.90;;;;;;6202701;23;20276;-84
2023/04/12 01:26:47;;;;;;;4.00;1.17;;;8.60;99.90;;;;;;6202590;23;20282;-83
2023/04/12 01:29:19;;;;;;;0.83;0.77;;;8.60;99.90;;;;;;6225479;23;20333;-85
2023/04/12 01:31:57;;;;;;;0.10;0.10;;;8.50;99.90;;;;;;6203555;23;20150;-84
2023/04/12 01:34:27;;;;;;;0.60;0.60;;;8.60;99.90;;;;;;6205378;23;20146;-85
2023/04/12 01:36:56;;;;;;;2.13;0.43;;;8.50;99.90;;;;;;6204901;23;20209;-84
2023/04/12 01:39:22;;;;;;;0.47;0.47;;;8.50;99.90;;;;;;6202544;23;21064;-84
2023/04/12 01:41:48;;;;;;;0.30;0.30;;;8.50;99.90;;;;;;6203775;23;20197;-84
2023/04/12 01:44:15;;;;;;;1.57;0.43;;;8.50;99.90;;;;;;6203382;23;20212;-84
2023/04/12 01:46:46;;;;;;;0.67;0.60;;;8.50;99.90;;;;;;6228214;23;20158;-84
2023/04/12 01:49:13;;;;;;;1.33;0.97;;;8.50;99.90;;;;;;6205833;23;20221;-84
2023/04/12 01:51:53;;;;;;;0.40;0.40;;;8.50;99.90;;;;;;6204526;23;20238;-85
2023/04/12 01:54:26;;;;;;;1.10;0.87;;;8.50;99.90;;;;;;6204638;23;20194;-84
2023/04/12 01:56:58;;;;;;;0.80;0.80;;;8.40;99.90;;;;;;6204744;23;20196;-85
2023/04/12 01:59:42;;;;;;;0.70;0.70;;;8.40;99.90;;;;;;6228566;23;20208;-85
2023/04/12 02:02:09;;;;;;;0.33;0.33;;;8.50;99.90;;;;;;6204713;23;20217;-85
2023/04/12 02:04:36;;;;;;;0.30;0.30;;;8.50;99.90;;;;;;6203123;23;20158;-85
2023/04/12 02:07:02;;;;;;;3.47;1.03;;;8.50;99.90;;;;;;6229192;23;20181;-85
2023/04/12 02:09:28;;;;;;;0.53;0.53;;;8.50;99.90;;;;;;6203459;23;20228;-85
2023/04/12 02:11:55;;;;;;;1.03;0.93;;;8.50;99.90;;;;;;6228665;23;20194;-85
2023/04/12 02:14:21;;;;;;;0.37;0.37;;;8.50;99.90;;;;;;6204851;23;20194;-86
2023/04/12 02:16:47;;;;;;;4.73;1.60;;;8.50;99.90;;;;;;6228975;23;20573;-85
2023/04/12 02:19:13;;;;;;;0.30;0.30;;;8.50;99.90;;;;;;6205911;23;20189;-85
2023/04/12 02:21:43;;;;;;;0.60;0.60;;;8.50;99.90;;;;;;6203239;23;20252;-85
2023/04/12 02:24:10;;;;;;;0.70;0.70;;;8.60;99.90;;;;;;6201382;23;20238;-84
2023/04/12 02:26:37;;;;;;;1.37;1.27;;;8.60;99.90;;;;;;6228364;23;20198;-85
2023/04/12 02:29:07;;;;;;;1.07;0.93;;;8.60;99.90;;;;;;6203435;23;20289;-84
2023/04/12 02:31:35;;;;;;;1.30;0.90;;;8.60;99.90;;;;;;6207271;23;20170;-82
2023/04/12 02:34:01;;;;;;;0.10;0.10;;;8.60;99.90;;;;;;6236494;23;20240;-87
2023/04/12 02:36:28;;;;;;;1.60;0.77;;;8.60;99.90;;;;;;6235448;23;20807;-84
2023/04/12 02:38:54;;;;;;;0.60;0.60;;;8.60;99.90;;;;;;6211688;23;20253;-85
2023/04/12 02:41:22;;;;;;;0.60;0.60;;;8.60;99.90;;;;;;6213445;23;20213;-85
2023/04/12 02:43:47;;;;;;;0.40;0.40;;;8.60;99.90;;;;;;6213405;23;20203;-84
2023/04/12 02:46:22;;;;;;;0.53;0.53;;;8.60;99.90;;;;;;6214327;23;20146;-84
2023/04/12 02:48:48;;;;;;;0.30;0.30;;;8.60;99.90;;;;;;6213650;23;20189;-83
2023/04/12 02:51:14;;;;;;;1.57;0.83;;;8.60;99.90;;;;;;6211706;23;20206;-83
2023/04/12 02:53:40;;;;;;;9.00;1.37;;;8.60;99.90;;;;;;6237360;23;20190;-86
2023/04/12 02:56:07;;;;;;;1.27;1.17;;;8.60;99.90;;;;;;6213512;23;20190;-84
2023/04/12 02:58:34;;;;;;;8.37;1.13;;;8.60;99.90;;;;;;6213343;23;20154;-83
2023/04/12 03:01:00;;;;;;;0.40;0.40;;;8.60;99.90;;;;;;6212255;23;20182;-86
2023/04/12 03:03:27;;;;;;;0.73;0.73;;;8.60;99.90;;;;;;6237231;22;20194;-84
2023/04/12 03:05:53;;;;;;;1.60;0.40;;;8.60;99.90;;;;;;6211861;23;20189;-84
2023/04/12 03:08:20;;;;;;;0.70;0.47;;;8.60;99.90;;;;;;6237128;23;20766;-84
2023/04/12 03:10:46;;;;;;;0.30;0.30;;;8.60;99.90;;;;;;6237169;23;20228;-84
2023/04/12 03:13:12;;;;;;;0.27;0.27;;;8.60;99.90;;;;;;6212571;23;20154;-85
2023/04/12 03:15:38;;;;;;;1.33;0.80;;;8.60;99.90;;;;;;6211773;23;20192;-84
2023/04/12 03:18:04;;;;;;;0.97;0.97;;;8.60;99.90;;;;;;6237599;22;20197;-84
2023/04/12 03:20:30;;;;;;;0.87;0.63;;;8.60;99.90;;;;;;6236946;23;20190;-85
2023/04/12 03:22:55;;;;;;;1.83;0.70;;;8.50;99.90;;;;;;6236880;23;20204;-84
2023/04/12 03:25:21;;;;;;;0.60;0.60;;;8.50;99.90;;;;;;6213825;23;20638;-85
2023/04/12 03:27:47;;;;;;;1.10;1.10;;;8.50;99.90;;;;;;6186986;23;20196;-84
2023/04/12 03:30:13;;;;;;;1.33;0.50;;;8.50;99.90;;;;;;6186695;23;20208;-84
2023/04/12 03:32:40;;;;;;;1.80;1.30;;;8.50;99.90;;;;;;6237116;23;20196;-83
2023/04/12 03:35:10;;;;;;;0.67;0.60;;;8.50;99.90;;;;;;6212632;23;20198;-85
2023/04/12 03:37:36;;;;;;;0.50;0.50;;;8.50;99.90;;;;;;6236902;23;20224;-82
2023/04/12 03:40:02;;;;;;;1.97;0.63;;;8.40;99.90;;;;;;6237328;23;20161;-83
2023/04/12 03:42:28;;;;;;;0.53;0.53;;;8.40;99.90;;;;;;6212055;23;20190;-85
2023/04/12 03:44:54;;;;;;;0.30;0.30;;;8.40;99.90;;;;;;6236263;23;20189;-82
2023/04/12 03:47:20;;;;;;;1.23;0.93;;;8.40;99.90;;;;;;6236036;23;20313;-83
2023/04/12 03:49:46;;;;;;;1.60;1.50;;;8.40;99.90;;;;;;6209786;23;20189;-85
2023/04/12 03:52:12;;;;;;;3.03;0.67;;;8.40;99.90;;;;;;6235315;23;20150;-81
2023/04/12 03:54:39;;;;;;;0.87;0.53;;;8.40;99.90;;;;;;6184410;23;20185;-85
2023/04/12 03:57:06;;;;;;;1.13;0.30;;;8.40;99.90;;;;;;6209665;23;20201;-82
2023/04/12 03:59:31;;;;;;;0.53;0.53;;;8.30;99.90;;;;;;6211659;23;20301;-81
2023/04/12 04:01:59;;;;;;;0.30;0.30;;;8.30;99.90;;;;;;6235584;23;20260;-81
2023/04/12 04:04:28;;;;;;;0.50;0.50;;;8.30;99.90;;;;;;6212211;23;20745;-83
2023/04/12 04:06:54;;;;;;;0.57;0.40;;;8.30;99.90;;;;;;6211877;23;20190;-82
2023/04/12 04:09:20;;;;;;;1.13;0.70;;;8.30;99.90;;;;;;6211922;23;20256;-81
2023/04/12 04:11:46;;;;;;;0.60;0.60;;;8.30;99.90;;;;;;6210120;23;20778;-81
2023/04/12 04:14:12;;;;;;;7.80;0.77;;;8.30;99.90;;;;;;6210474;23;20197;-81
2023/04/12 04:16:38;;;;;;;0.60;0.60;;;8.30;99.90;;;;;;6209264;23;20161;-82
2023/04/12 04:19:04;;;;;;;1.27;0.53;;;8.20;99.90;;;;;;6211645;23;20158;-82
2023/04/12 04:21:31;;;;;;;0.63;0.63;;;8.20;99.90;;;;;;6209489;23;20185;-81
2023/04/12 04:23:59;;;;;;;1.43;0.77;;;8.20;99.90;;;;;;6210210;23;20241;-81
2023/04/12 04:26:32;;;;;;;0.50;0.50;;;8.20;99.90;;;;;;6208949;22;20193;-81
2023/04/12 04:29:02;;;;;;;0.77;0.67;;;8.20;99.90;;;;;;6232819;23;20265;-80
2023/04/12 04:31:35;;;;;;;0.50;0.50;;;8.20;99.90;;;;;;6233839;23;20578;-81
2023/04/12 04:34:04;;;;;;;0.90;0.60;;;8.20;99.90;;;;;;6234414;23;20192;-83
2023/04/12 04:36:32;;;;;;;0.50;0.50;;;8.20;99.90;;;;;;6210169;22;20190;-83
2023/04/12 04:38:58;;;;;;;0.63;0.63;;;8.10;99.90;;;;;;6233986;23;20652;-82
2023/04/12 04:41:25;;;;;;;0.57;0.57;;;8.10;99.90;;;;;;6208550;23;20198;-82
2023/04/12 04:43:52;;;;;;;0.40;0.40;;;8.10;99.90;;;;;;6209814;23;20776;-80
2023/04/12 04:46:20;;;;;;;0.77;0.70;;;8.10;99.90;;;;;;6210534;23;20150;-84
2023/04/12 04:48:53;;;;;;;0.40;0.40;;;8.10;99.90;;;;;;6233805;23;20200;-81
2023/04/12 04:51:19;;;;;;;0.40;0.40;;;8.10;99.90;;;;;;6233562;23;20202;-83
2023/04/12 04:53:45;;;;;;;1.40;1.30;;;8.10;99.90;;;;;;6208733;23;20197;-83
2023/04/12 04:56:11;;;;;;;5.03;0.83;;;8.10;99.90;;;;;;6233537;23;20185;-82
2023/04/12 04:58:37;;;;;;;0.40;0.40;;;8.10;99.90;;;;;;6210152;23;20306;-82
2023/04/12 05:01:04;;;;;;;0.77;0.70;;;8.10;99.90;;;;;;6209924;23;20544;-81
2023/04/12 05:03:32;;;;;;;0.50;0.50;;;8.10;99.90;;;;;;6208472;23;20217;-82
2023/04/12 05:06:01;;;;;;;1.13;0.50;;;8.10;99.90;;;;;;6233658;23;20272;-82
2023/04/12 05:08:27;;;;;;;0.60;0.60;;;8.10;99.90;;;;;;6210158;23;20209;-81
2023/04/12 05:10:56;;;;;;;2.63;0.87;;;8.10;99.90;;;;;;6232743;23;20173;-81
2023/04/12 05:13:22;;;;;;;0.73;0.73;;;8.10;99.90;;;;;;6233906;23;20246;-81
2023/04/12 05:15:48;;;;;;;0.97;0.50;;;8.00;99.90;;;;;;6208459;23;20704;-80
2023/04/12 05:18:14;;;;;;;2.40;0.43;;;8.10;99.90;;;;;;6210061;23;20201;-81
2023/04/12 05:20:40;;;;;;;0.43;0.43;;;8.10;99.90;;;;;;6207778;23;20198;-82
2023/04/12 05:23:06;;;;;;;0.30;0.30;;;8.10;99.90;;;;;;6208662;23;20555;-83
2023/04/12 05:25:32;;;;;;;0.53;0.53;;;8.00;99.90;;;;;;6168414;23;1544213;-83
2023/04/12 05:27:57;;;;;;;0.77;0.77;;;8.10;99.90;;;;;;6210838;23;20683;-81
2023/04/12 05:30:24;;;;;;;1.00;0.70;;;8.00;99.90;;;;;;6184396;23;20243;-82
2023/04/12 05:32:49;;;;;;;1.13;1.13;;;8.10;99.90;;;;;;6233423;23;20217;-81
2023/04/12 05:35:16;;;;;;;0.50;0.50;;;8.10;99.90;;;;;;6234466;23;20240;-82
2023/04/12 05:37:41;;;;;;;0.40;0.40;;;8.10;99.90;;;;;;6210945;23;20150;-81
2023/04/12 05:40:11;;;;;;;0.70;0.53;;;8.10;99.90;;;;;;6212393;23;20246;-83
2023/04/12 05:42:36;;;;;;;0.33;0.33;;;8.10;99.90;;;;;;6213915;23;20197;-81
2023/04/12 05:45:03;;;;;;;1.00;0.47;;;8.10;99.90;;;;;;6234646;23;20185;-84
2023/04/12 05:47:29;;;;;;;0.67;0.67;;;8.10;99.90;;;;;;6184489;23;20325;-83
2023/04/12 05:49:54;;;;;;;1.20;0.57;;;8.00;99.90;;;;;;6209175;23;20249;-84
2023/04/12 05:52:20;;;;;;;0.20;0.20;;;8.00;99.90;;;;;;6210441;23;20229;-81
2023/04/12 05:54:46;;;;;;;1.40;0.83;;;8.00;99.90;;;;;;6234382;23;20193;-83
2023/04/12 05:57:12;;;;;;;0.60;0.60;;;8.00;99.90;;;;;;6235115;23;20186;-82
2023/04/12 05:59:37;;;;;;;1.90;0.97;;;8.00;99.90;;;;;;6209246;23;20246;-81
2023/04/12 06:02:03;;;;;;;2.10;0.77;;;8.10;99.90;;;;;;6209181;23;20186;-80
2023/04/12 06:04:30;;;;;;;0.70;0.70;;;8.00;99.90;;;;;;6210925;23;20155;-81
2023/04/12 06:06:56;;;;;;;2.67;0.93;;;8.10;99.90;;;;;;6234151;23;20256;-81
2023/04/12 06:09:22;;;;;;;0.67;0.67;;;8.10;99.90;;;;;;6210622;23;20201;-81
2023/04/12 06:11:47;;;;;;;0.83;0.77;;;8.10;99.90;;;;;;6208868;23;20193;-82
2023/04/12 06:14:13;;;;;;;0.97;0.73;;;8.10;99.90;;;;;;6209224;23;20182;-82
2023/04/12 06:16:39;;;;;;;0.53;0.53;;;8.10;99.90;;;;;;6184042;23;20204;-82
2023/04/12 06:19:05;;;;;;;5.57;1.27;;;8.10;99.90;;;;;;6209627;23;20158;-82
2023/04/12 06:21:31;;;;;;;0.97;0.70;;;8.10;99.90;;;;;;6210457;23;20548;-82
2023/04/12 06:23:57;;;;;;;3.07;1.50;;;8.10;99.90;;;;;;6209766;23;20793;-83
2023/04/12 06:26:22;;;;;;;0.73;0.73;;;8.10;99.90;;;;;;6234090;23;20194;-82
2023/04/12 06:28:48;;;;;;;3.77;0.93;;;8.10;99.90;;;;;;6209067;23;20636;-82
2023/04/12 06:31:15;;;;;;;1.07;1.07;;;8.10;99.90;;;;;;6210933;23;20192;-83
2023/04/12 06:33:41;;;;;;;0.50;0.50;;;8.20;99.90;;;;;;6233813;23;20264;-82
2023/04/12 06:36:07;;;;;;;2.13;0.97;;;8.10;99.90;;;;;;6208759;23;20213;-82
2023/04/12 06:38:33;;;;;;;1.13;1.13;;;8.20;99.90;;;;;;6210366;23;20197;-81
2023/04/12 06:40:59;;;;;;;1.43;1.30;;;8.20;99.90;;;;;;6183669;23;20186;-84
2023/04/12 06:43:25;;;;;;;0.87;0.87;;;8.20;99.90;;;;;;6210099;23;20237;-84
2023/04/12 06:45:51;;;;;;;2.33;2.13;;;8.20;99.90;;;;;;6210879;22;20204;-83
2023/04/12 06:48:17;;;;;;;1.17;1.07;;;8.20;99.90;;;;;;6184136;23;20194;-82
2023/04/12 06:50:44;;;;;;;0.97;0.80;;;8.30;99.90;;;;;;6234187;23;20229;-80
2023/04/12 06:53:12;;;;;;;1.23;1.23;;;8.30;99.90;;;;;;6208555;23;20182;-83
2023/04/12 06:55:38;;;;;;;0.77;0.77;;;8.30;99.90;;;;;;6210468;23;20162;-83
2023/04/12 06:58:04;;;;;;;1.53;1.00;;;8.30;99.90;;;;;;6209155;23;20154;-83
2023/04/12 07:00:30;;;;;;;0.90;0.90;;;8.30;99.90;;;;;;6209884;23;20204;-83
2023/04/12 07:02:56;;;;;;;1.10;1.00;;;8.40;99.90;;;;;;6208800;23;20687;-82
2023/04/12 07:05:22;;;;;;;1.57;1.47;;;8.40;99.90;;;;;;6232338;23;20699;-81
2023/04/12 07:07:47;;;;;;;2.27;0.97;;;8.50;99.90;;;;;;6208277;23;20155;-83
2023/04/12 07:10:13;;;;;;;1.03;0.77;;;8.50;99.90;;;;;;6207162;23;20182;-82
2023/04/12 07:12:39;;;;;;;0.90;0.90;;;8.50;99.90;;;;;;6232320;23;20614;-81
2023/04/12 07:15:05;;;;;;;0.90;0.90;;;8.60;99.90;;;;;;6208868;23;20194;-83
2023/04/12 07:17:31;;;;;;;0.97;0.97;;;8.60;99.90;;;;;;6232450;23;20186;-84
2023/04/12 07:19:56;;;;;;;0.70;0.70;;;8.60;99.90;;;;;;6207123;23;20620;-82
2023/04/12 07:22:22;;;;;;;1.70;1.37;;;8.50;99.90;;;;;;6209874;23;20725;-82
2023/04/12 07:24:50;;;;;;;1.30;1.17;;;8.50;99.90;;;;;;6211129;23;20210;-82
2023/04/12 07:27:16;;;;;;;1.20;1.10;;;8.50;99.90;;;;;;6235530;23;20275;-82
2023/04/12 07:29:42;;;;;;;0.83;0.83;;;8.60;99.90;;;;;;6210507;23;20205;-81
2023/04/12 07:32:09;;;;;;;0.63;0.63;;;8.60;99.90;;;;;;6211553;23;20208;-82
2023/04/12 07:34:35;;;;;;;1.87;0.90;;;8.60;99.90;;;;;;6211163;23;20158;-82
2023/04/12 07:37:01;;;;;;;1.23;0.53;;;8.60;99.90;;;;;;6211556;23;20644;-82
2023/04/12 07:39:30;;;;;;;0.67;0.67;;;8.60;99.90;;;;;;6184130;23;20212;-83
2023/04/12 07:41:56;;;;;;;0.83;0.83;;;8.60;99.90;;;;;;6210331;23;20194;-83
2023/04/12 07:44:22;;;;;;;0.83;0.83;;;8.60;99.90;;;;;;6210563;23;20640;-82
2023/04/12 07:46:48;;;;;;;0.87;0.77;;;8.70;99.90;;;;;;6210455;23;20652;-82
2023/04/12 07:49:13;;;;;;;0.87;0.87;;;8.70;99.90;;;;;;6209452;23;20667;-82
2023/04/12 07:51:40;;;;;;;0.63;0.63;;;8.70;99.90;;;;;;6211075;23;20202;-82
2023/04/12 07:54:06;;;;;;;0.53;0.53;;;8.80;99.90;;;;;;6209841;22;20801;-81
2023/04/12 07:56:35;;;;;;;1.17;0.87;;;8.80;99.90;;;;;;6210892;23;20224;-83
2023/04/12 07:59:01;;;;;;;1.20;1.10;;;8.80;99.90;;;;;;6234786;23;20522;-82
2023/04/12 08:01:27;;;;;;;0.83;0.83;;;8.80;99.90;;;;;;6220256;23;20177;-83
2023/04/12 08:03:53;;;;;;;1.40;0.63;;;8.90;99.90;;;;;;6238946;23;20197;-82
2023/04/12 08:06:18;;;;;;;1.30;1.20;;;9.00;99.90;;;;;;6234936;23;20186;-81
2023/04/12 08:08:44;;;;;;;3.97;3.57;;;9.10;99.90;;;;;;6209605;23;20201;-83
2023/04/12 08:11:10;;;;;;;5.03;2.03;;;9.10;99.90;;;;;;6209774;23;20201;-81
2023/04/12 08:13:36;;;;;;;2.47;2.27;;;9.10;99.90;;;;;;6234691;23;20192;-82
2023/04/12 08:16:02;;;;;;;0.90;0.90;;;9.10;99.90;;;;;;6210318;23;20150;-82
2023/04/12 08:18:28;;;;;;;1.60;1.50;;;9.20;99.90;;;;;;6211323;23;20220;-82
2023/04/12 08:20:55;;;;;;;2.13;1.07;;;9.30;99.90;;;;;;6234821;23;20197;-82
2023/04/12 08:23:22;;;;;;;4.23;3.83;;;9.30;99.90;;;;;;6209261;23;20251;-83
2023/04/12 08:25:48;;;;;;;1.50;1.43;;;9.50;99.90;;;;;;6206238;23;20275;-82
2023/04/12 08:28:13;;;;;;;2.83;1.87;;;9.60;99.90;;;;;;6210709;23;20620;-82
2023/04/12 08:30:39;;;;;;;6.73;2.63;;;9.80;99.90;;;;;;6210787;23;20205;-81
2023/04/12 08:33:05;;;;;;;3.00;2.70;;;10.10;99.90;;;;;;6209465;23;20213;-82
2023/04/12 08:35:31;;;;;;;1.67;1.27;;;10.30;99.90;;;;;;6210149;23;20189;-83
2023/04/12 08:37:57;;;;;;;2.93;1.10;;;10.30;99.90;;;;;;6209315;23;20828;-82
2023/04/12 08:40:23;;;;;;;1.83;1.73;;;10.40;99.90;;;;;;6211216;23;20159;-82
2023/04/12 08:42:52;;;;;;;4.47;2.93;;;10.80;99.90;;;;;;6210246;23;20269;-83
2023/04/12 08:45:17;;;;;;;1.73;1.17;;;11.30;99.90;;;;;;6210267;23;20189;-84
2023/04/12 08:47:44;;;;;;;1.50;1.20;;;11.30;99.90;;;;;;6210984;23;20193;-82
2023/04/12 08:50:12;;;;;;;6.03;2.77;;;11.30;99.90;;;;;;6233568;23;20277;-82
2023/04/12 08:52:39;;;;;;;2.57;2.47;;;11.40;99.90;;;;;;6209156;23;20154;-83
2023/04/12 08:55:06;;;;;;;1.00;0.90;;;11.30;99.90;;;;;;6235435;23;20150;-82
2023/04/12 08:57:33;;;;;;;1.17;0.93;;;11.30;99.90;;;;;;6210784;23;20622;-82
2023/04/12 09:00:00;;;;;;;5.13;1.80;;;11.20;99.90;;;;;;6210956;23;20205;-82
2023/04/12 09:02:27;;;;;;;2.23;1.60;;;11.30;99.90;;;;;;6235393;23;20559;-83
2023/04/12 09:04:53;;;;;;;2.07;1.37;;;11.70;99.90;;;;;;6234813;23;20150;-83
2023/04/12 09:07:22;;;;;;;15.57;1.17;;;11.70;99.90;;;;;;6210370;23;20154;-82
2023/04/12 09:09:49;;;;;;;0.93;0.93;;;11.60;99.90;;;;;;6211318;23;20194;-85
2023/04/12 09:12:15;;;;;;;4.90;1.07;;;11.50;99.90;;;;;;6235815;23;20196;-84
2023/04/12 09:14:43;;;;;;;3.07;1.93;;;12.10;99.90;;;;;;6210318;23;20200;-83
2023/04/12 09:17:26;;;;;;;8.20;1.87;;;12.90;99.90;;;;;;6235194;23;20190;-84
2023/04/12 09:19:56;;;;;;;5.93;2.00;;;14.80;99.90;;;;;;6235414;23;20154;-84
2023/04/12 09:22:35;;;;;;;1.80;1.10;;;15.40;99.90;;;;;;6211162;23;20156;-86
2023/04/12 09:25:01;;;;;;;0.73;0.73;;;14.80;99.90;;;;;;6207363;23;20213;-86
2023/04/12 09:27:28;;;;;;;2.40;1.40;;;14.10;99.90;;;;;;6235516;23;20196;-89
2023/04/12 09:30:09;;;;;;;5.30;1.83;;;13.50;99.90;;;;;;6234642;23;20198;-88
2023/04/12 09:32:35;;;;;;;4.20;1.37;;;13.20;99.90;;;;;;6196137;23;20198;-90
2023/04/12 09:35:01;;;;;;;3.93;1.30;;;13.30;99.90;;;;;;6208627;23;20675;-87
2023/04/12 09:37:27;;;;;;;3.20;0.97;;;13.70;99.90;;;;;;6210417;23;20161;-86
2023/04/12 09:40:00;;;;;;;6.63;1.47;;;13.80;99.90;;;;;;6209950;23;20217;-87
2023/04/12 09:42:27;;;;;;;2.30;1.03;;;14.90;99.90;;;;;;6207204;23;20198;-87
2023/04/12 09:44:53;;;;;;;9.97;1.80;;;16.30;99.90;;;;;;6235103;23;20186;-88
2023/04/12 09:47:20;;;;;;;1.03;1.03;;;17.20;99.90;;;;;;6211567;23;20206;-88
2023/04/12 09:49:45;;;;;;;1.50;0.90;;;17.10;99.90;;;;;;6237101;23;20169;-87
2023/04/12 09:52:12;;;;;;;1.10;0.60;;;16.40;99.90;;;;;;6210389;23;20194;-87
2023/04/12 09:54:43;;;;;;;1.67;0.70;;;16.40;99.90;;;;;;6211002;23;20197;-89
2023/04/12 09:57:10;;;;;;;1.47;0.93;;;17.50;99.90;;;;;;6236069;23;20186;-87
2023/04/12 09:59:38;;;;;;;2.43;0.60;;;17.30;99.90;;;;;;6212573;23;20197;-88
2023/04/12 10:02:14;;;;;;;1.03;0.93;;;16.60;99.90;;;;;;6212082;23;20237;-88
2023/04/12 10:04:41;;;;;;;2.47;0.70;;;16.60;99.90;;;;;;6211267;23;20165;-87
2023/04/12 10:07:07;;;;;;;3.83;0.70;;;16.60;99.90;;;;;;6185608;23;20196;-88
2023/04/12 10:09:36;;;;;;;1.30;1.00;;;16.00;99.90;;;;;;6212314;23;20629;-87
2023/04/12 10:12:02;;;;;;;1.87;1.03;;;16.00;99.90;;;;;;6236611;23;20746;-86
2023/04/12 10:14:29;;;;;;;1.60;0.80;;;15.70;99.90;;;;;;6200469;23;20150;-86
2023/04/12 10:17:00;;;;;;;9.47;1.37;;;15.70;99.90;;;;;;6213149;23;20241;-87
2023/04/12 10:19:28;;;;;;;5.53;1.40;;;15.80;99.90;;;;;;6186872;23;20193;-89
2023/04/12 10:21:55;;;;;;;4.73;1.80;;;16.10;99.90;;;;;;6235989;23;20195;-90
2023/04/12 10:24:23;;;;;;;2.00;1.00;;;16.10;99.90;;;;;;6235631;23;20196;-91
2023/04/12 10:26:49;;;;;;;2.47;0.87;;;15.60;99.90;;;;;;6212717;23;20220;-87
2023/04/12 10:29:33;;;;;;;1.20;1.07;;;15.00;99.90;;;;;;6235828;23;20150;-85
2023/04/12 10:32:22;;;;;;;1.00;0.53;;;14.70;99.90;;;;;;6251804;23;20164;-88
2023/04/12 10:34:56;;;;;;;4.67;2.27;;;14.00;99.90;;;;;;6214292;23;20233;-86
2023/04/12 10:38:04;;;;;;;0.93;0.93;;;13.20;99.90;;;;;;6235597;23;20189;-86
2023/04/12 10:40:31;;;;;;;1.37;0.50;;;13.20;99.90;;;;;;6211953;23;20219;-86
2023/04/12 10:43:23;;;;;;;3.27;1.00;;;13.40;99.90;;;;;;6210509;23;20189;-84
2023/04/12 10:45:49;;;;;;;1.27;0.73;;;13.00;99.90;;;;;;6211840;23;20190;-86
2023/04/12 10:48:51;;;;;;;0.53;0.53;;;13.10;99.90;;;;;;6210408;23;20194;-86
2023/04/12 10:51:27;;;;;;;0.20;0.20;;;13.60;99.90;;;;;;6168455;23;20262;-85
2023/04/12 10:54:16;;;;;;;2.40;1.00;;;13.70;99.90;;;;;;6181214;23;20189;-84
2023/04/12 10:56:45;;;;;;;4.00;1.23;;;14.90;99.90;;;;;;6181413;23;20182;-86
2023/04/12 10:59:12;;;;;;;2.97;1.17;;;15.00;99.90;;;;;;6183053;23;20151;-86
2023/04/12 11:01:39;;;;;;;1.40;0.73;;;15.40;99.90;;;;;;6183679;23;20206;-86
2023/04/12 11:04:05;;;;;;;3.60;1.63;;;15.30;99.90;;;;;;6156752;23;20240;-87
2023/04/12 11:06:52;;;;;;;3.93;1.00;;;14.70;99.90;;;;;;6183305;23;20800;-87
2023/04/12 11:09:36;;;;;;;2.00;0.70;;;14.10;99.90;;;;;;6184540;23;20194;-86
2023/04/12 11:12:05;;;;;;;2.90;0.73;;;14.50;99.90;;;;;;6183537;23;20240;-86
2023/04/12 11:14:34;;;;;;;3.70;0.87;;;14.40;99.90;;;;;;6183281;23;20155;-87
2023/04/12 11:17:15;;;;;;;4.23;0.60;;;15.00;99.90;;;;;;6182568;23;20155;-87
2023/04/12 11:19:55;;;;;;;2.37;0.83;;;14.60;99.90;;;;;;6207457;23;20188;-86
2023/04/12 11:22:26;;;;;;;5.37;1.43;;;14.60;99.90;;;;;;6182979;23;20193;-86
2023/04/12 11:24:54;;;;;;;10.87;1.17;;;14.60;99.90;;;;;;6176559;23;20285;-86
2023/04/12 11:27:22;;;;;;;5.77;1.20;;;15.80;99.90;;;;;;6200020;23;20202;-85
2023/04/12 11:29:54;;;;;;;1.63;1.10;;;17.00;99.90;;;;;;6182633;23;20198;-85
2023/04/12 11:32:22;;;;;;;3.53;1.50;;;16.80;99.90;;;;;;6183071;23;20586;-87
2023/04/12 11:34:49;;;;;;;8.37;1.50;;;16.10;99.90;;;;;;6183754;23;20150;-86
2023/04/12 11:37:18;;;;;;;2.80;1.53;;;16.10;99.90;;;;;;6181543;23;20637;-85
2023/04/12 11:39:45;;;;;;;0.83;0.83;;;16.00;99.90;;;;;;6183049;23;20197;-85
2023/04/12 11:42:30;;;;;;;6.30;1.47;;;16.20;99.90;;;;;;6181733;23;20194;-87
2023/04/12 11:44:56;;;;;;;4.90;1.13;;;15.80;99.90;;;;;;6206687;23;20186;-86
2023/04/12 11:47:23;;;;;;;3.83;0.70;;;15.10;99.90;;;;;;6157118;23;20151;-87
2023/04/12 11:50:01;;;;;;;6.13;0.80;;;15.10;99.90;;;;;;6182449;23;20202;-86
2023/04/12 11:52:32;;;;;;;2.43;0.70;;;14.50;99.90;;;;;;6183851;23;20202;-86
2023/04/12 11:55:09;;;;;;;3.57;1.30;;;14.30;99.90;;;;;;6183609;23;20195;-86
2023/04/12 11:57:37;;;;;;;2.17;0.63;;;14.20;99.90;;;;;;6181318;23;20198;-86
2023/04/12 12:00:05;;;;;;;1.10;1.10;;;14.50;99.90;;;;;;6182745;23;20198;-85
2023/04/12 12:02:32;;;;;;;2.50;0.90;;;14.20;99.90;;;;;;6156818;23;20683;-86
2023/04/12 12:04:58;;;;;;;8.97;1.00;;;14.50;99.90;;;;;;6181796;23;20159;-87
2023/04/12 12:07:24;;;;;;;1.83;1.23;;;14.90;99.90;;;;;;6179022;23;20197;-87
2023/04/12 12:09:50;;;;;;;2.13;1.00;;;14.80;99.90;;;;;;6202644;23;20198;-90
2023/04/12 12:12:17;;;;;;;4.10;0.73;;;15.00;99.90;;;;;;6211749;23;20732;-89
2023/04/12 12:14:44;;;;;;;3.90;1.73;;;14.70;99.90;;;;;;6237193;23;20186;-85
2023/04/12 12:17:11;;;;;;;5.97;1.63;;;14.30;99.90;;;;;;6237268;23;20150;-88
2023/04/12 12:19:42;;;;;;;1.03;0.50;;;14.30;99.90;;;;;;6181275;23;20194;-87
2023/04/12 12:22:23;;;;;;;3.90;1.67;;;14.10;99.90;;;;;;6206413;23;20277;-87
2023/04/12 12:24:55;;;;;;;2.00;0.90;;;13.80;99.90;;;;;;6181179;23;20282;-87
2023/04/12 12:27:23;;;;;;;3.03;0.70;;;13.70;99.90;;;;;;6182170;23;20202;-86
2023/04/12 12:29:52;;;;;;;5.10;0.47;;;13.80;99.90;;;;;;6181658;23;20715;-88
2023/04/12 12:32:19;;;;;;;0.97;0.77;;;14.30;99.90;;;;;;6156143;23;20151;-88
2023/04/12 12:34:53;;;;;;;6.90;1.13;;;14.50;99.90;;;;;;6181656;23;20158;-87
2023/04/12 12:37:22;;;;;;;19.43;1.10;;;14.10;99.90;;;;;;6180858;23;20195;-87
2023/04/12 12:40:13;;;;;;;1.93;0.90;;;14.00;99.90;;;;;;6181379;23;20345;-87
2023/04/12 12:42:52;;;;;;;1.60;0.90;;;13.90;99.90;;;;;;6180693;23;20243;-87
2023/04/12 12:45:20;;;;;;;1.80;0.43;;;14.20;99.90;;;;;;6182741;23;20252;-87
2023/04/12 12:47:48;;;;;;;5.83;0.77;;;14.80;99.90;;;;;;6158599;23;20186;-88
2023/04/12 12:50:18;;;;;;;2.13;1.03;;;15.30;99.90;;;;;;6181960;23;20210;-89
2023/04/12 12:52:45;;;;;;;3.30;0.70;;;15.50;99.90;;;;;;6237845;23;20138;-87
2023/04/12 12:55:12;;;;;;;6.93;1.00;;;14.80;99.90;;;;;;6213157;23;20189;-88
2023/04/12 12:57:38;;;;;;;4.70;1.00;;;14.70;99.90;;;;;;6212564;23;20401;-89
2023/04/12 13:00:05;;;;;;;0.93;0.67;;;14.50;99.90;;;;;;6212019;23;20200;-89